createdAt,value
2023-08-11T00:00:10.200Z,11.50
2023-08-11T00:02:41.180Z,11.45
2023-08-11T00:05:11.167Z,11.42
2023-08-11T00:07:39.626Z,11.37
2023-08-11T00:10:09.190Z,11.35
2023-08-11T00:12:37.895Z,11.32
2023-08-11T00:15:08.079Z,11.30
2023-08-11T00:17:36.566Z,11.25
2023-08-11T00:20:07.444Z,11.23
2023-08-11T00:22:38.520Z,11.21
2023-08-11T00:25:07.782Z,11.18
2023-08-11T00:27:36.233Z,11.15
2023-08-11T00:30:06.721Z,11.11
2023-08-11T00:32:35.244Z,11.09
2023-08-11T00:35:05.642Z,11.07
2023-08-11T00:37:34.853Z,11.05
2023-08-11T00:40:06.683Z,11.03
2023-08-11T00:42:35.048Z,10.99
2023-08-11T00:45:04.529Z,10.96
2023-08-11T00:47:33.647Z,10.93
2023-08-11T00:50:02.368Z,10.92
2023-08-11T00:52:31.417Z,10.89
2023-08-11T00:55:00.003Z,10.86
2023-08-11T00:57:29.825Z,10.84
2023-08-11T00:59:58.300Z,10.82
2023-08-11T01:02:27.276Z,10.79
2023-08-11T01:04:56.028Z,10.78
2023-08-11T01:07:25.811Z,10.75
2023-08-11T01:10:00.502Z,10.71
2023-08-11T01:12:33.817Z,10.68
2023-08-11T01:15:06.321Z,10.66
2023-08-11T01:17:35.125Z,10.64
2023-08-11T01:20:09.627Z,10.61
2023-08-11T01:22:38.067Z,10.58
2023-08-11T01:25:08.780Z,10.54
2023-08-11T01:27:37.704Z,10.54
2023-08-11T01:30:07.953Z,10.53
2023-08-11T01:32:36.385Z,10.52
2023-08-11T01:35:06.940Z,10.50
2023-08-11T01:37:35.309Z,10.47
2023-08-11T01:40:07.009Z,10.45
2023-08-11T01:42:43.169Z,10.41
2023-08-11T01:45:17.055Z,10.39
2023-08-11T01:47:46.959Z,10.38
2023-08-11T01:50:15.947Z,10.33
2023-08-11T01:52:44.942Z,10.33
2023-08-11T01:55:13.394Z,10.31
2023-08-11T01:57:52.120Z,10.27
2023-08-11T02:00:25.475Z,10.26
2023-08-11T02:02:54.085Z,10.25
2023-08-11T02:05:26.173Z,10.25
2023-08-11T02:07:56.929Z,10.20
2023-08-11T02:10:25.850Z,10.19
2023-08-11T02:12:55.970Z,10.17
2023-08-11T02:15:24.815Z,10.15
2023-08-11T02:17:53.240Z,10.13
2023-08-11T02:20:23.709Z,10.15
2023-08-11T02:22:53.446Z,10.12
2023-08-11T02:25:23.526Z,10.12
2023-08-11T02:27:53.189Z,10.09
2023-08-11T02:30:23.538Z,10.08
2023-08-11T02:32:53.430Z,10.07
2023-08-11T02:35:22.708Z,10.04
2023-08-11T02:37:51.274Z,10.02
2023-08-11T02:40:21.521Z,10.03
2023-08-11T02:42:55.674Z,10.01
2023-08-11T02:45:25.576Z,9.98
2023-08-11T02:47:54.078Z,9.95
2023-08-11T02:50:22.724Z,9.94
2023-08-11T02:52:51.428Z,9.94
2023-08-11T02:55:20.888Z,9.92
2023-08-11T02:57:49.416Z,9.92
2023-08-11T03:00:18.693Z,9.89
2023-08-11T03:02:49.158Z,9.87
2023-08-11T03:05:18.501Z,9.85
2023-08-11T03:07:51.608Z,9.83
2023-08-11T03:10:20.409Z,9.80
2023-08-11T03:12:48.857Z,9.78
2023-08-11T03:15:17.989Z,9.77
2023-08-11T03:17:46.694Z,9.77
2023-08-11T03:20:17.505Z,9.74
2023-08-11T03:22:47.918Z,9.74
2023-08-11T03:25:21.378Z,9.72
2023-08-11T03:27:51.613Z,9.72
2023-08-11T03:30:25.802Z,9.71
2023-08-11T03:32:55.784Z,9.68
2023-08-11T03:35:38.372Z,9.66
2023-08-11T03:38:07.281Z,9.62
2023-08-11T03:40:37.010Z,9.60
2023-08-11T03:43:05.713Z,9.59
2023-08-11T03:45:36.736Z,9.59
2023-08-11T03:48:10.255Z,9.60
2023-08-11T03:50:40.150Z,9.59
2023-08-11T03:53:09.531Z,9.58
2023-08-11T03:55:39.637Z,9.57
2023-08-11T03:58:09.310Z,9.56
2023-08-11T04:00:39.215Z,9.56
2023-08-11T04:03:11.938Z,9.56
2023-08-11T04:05:41.822Z,9.57
2023-08-11T04:08:10.290Z,9.56
2023-08-11T04:10:39.517Z,9.58
2023-08-11T04:13:09.123Z,9.57
2023-08-11T04:15:37.648Z,9.61
2023-08-11T04:18:06.469Z,9.62
2023-08-11T04:20:34.998Z,9.62
2023-08-11T04:23:06.338Z,9.65
2023-08-11T04:25:37.270Z,9.69
2023-08-11T04:28:06.100Z,9.74
2023-08-11T04:30:34.716Z,9.80
2023-08-11T04:33:03.746Z,9.84
2023-08-11T04:35:35.477Z,9.90
2023-08-11T04:38:06.517Z,9.94
2023-08-11T04:40:36.852Z,9.96
2023-08-11T04:43:07.058Z,10.00
2023-08-11T04:45:41.227Z,10.07
2023-08-11T04:48:11.544Z,10.13
2023-08-11T04:50:44.722Z,10.19
2023-08-11T04:53:14.511Z,10.25
2023-08-11T04:55:43.186Z,10.34
2023-08-11T04:58:12.444Z,10.41
2023-08-11T05:00:40.901Z,10.49
2023-08-11T05:03:09.543Z,10.57
2023-08-11T05:05:38.027Z,10.65
2023-08-11T05:08:07.068Z,10.74
2023-08-11T05:10:36.918Z,10.82
2023-08-11T05:13:05.737Z,10.94
2023-08-11T05:15:34.775Z,11.04
2023-08-11T05:18:03.861Z,11.16
2023-08-11T05:20:32.383Z,11.28
2023-08-11T05:23:01.019Z,11.41
2023-08-11T05:25:29.727Z,11.56
2023-08-11T05:27:59.593Z,11.69
2023-08-11T05:30:29.075Z,11.82
2023-08-11T05:32:58.302Z,11.99
2023-08-11T05:35:27.959Z,12.14
2023-08-11T05:37:56.399Z,12.30
2023-08-11T05:40:25.017Z,12.46
2023-08-11T05:42:53.378Z,12.62
2023-08-11T05:45:23.355Z,12.78
2023-08-11T05:47:51.761Z,12.99
2023-08-11T05:50:20.706Z,13.14
2023-08-11T05:52:49.158Z,13.33
2023-08-11T05:55:17.758Z,13.47
2023-08-11T05:57:46.159Z,13.65
2023-08-11T06:00:18.086Z,13.83
2023-08-11T06:02:48.350Z,14.04
2023-08-11T06:05:16.947Z,14.24
2023-08-11T06:07:55.896Z,14.46
2023-08-11T06:10:33.438Z,14.70
2023-08-11T06:13:02.020Z,14.89
2023-08-11T06:15:31.576Z,15.13
2023-08-11T06:18:02.259Z,15.33
2023-08-11T06:20:39.330Z,15.52
2023-08-11T06:23:09.793Z,15.73
2023-08-11T06:25:38.303Z,15.92
2023-08-11T06:28:08.647Z,16.11
2023-08-11T06:30:37.063Z,16.33
2023-08-11T06:33:07.116Z,16.55
2023-08-11T06:35:35.756Z,16.80
2023-08-11T06:38:04.372Z,17.01
2023-08-11T06:40:32.720Z,17.19
2023-08-11T06:43:01.168Z,17.34
2023-08-11T06:45:29.590Z,17.54
2023-08-11T06:47:58.860Z,17.70
2023-08-11T06:50:28.709Z,17.98
2023-08-11T06:53:00.137Z,18.21
2023-08-11T06:55:29.024Z,18.45
2023-08-11T06:57:57.719Z,18.61
2023-08-11T07:00:26.612Z,18.74
2023-08-11T07:02:55.159Z,18.99
2023-08-11T07:05:23.680Z,19.13
2023-08-11T07:07:53.424Z,19.33
2023-08-11T07:10:22.277Z,19.47
2023-08-11T07:12:50.773Z,19.60
2023-08-11T07:15:19.325Z,19.77
2023-08-11T07:17:48.157Z,19.87
2023-08-11T07:20:16.608Z,19.94
2023-08-11T07:22:45.066Z,19.98
2023-08-11T07:25:15.251Z,20.10
2023-08-11T07:27:44.086Z,20.15
2023-08-11T07:30:13.148Z,20.35
2023-08-11T07:32:42.947Z,20.48
2023-08-11T07:35:11.532Z,20.64
2023-08-11T07:37:40.197Z,20.78
2023-08-11T07:40:10.695Z,20.84
2023-08-11T07:42:40.487Z,20.97
2023-08-11T07:45:10.379Z,21.13
2023-08-11T07:47:39.392Z,21.21
2023-08-11T07:50:08.848Z,21.23
2023-08-11T07:52:37.477Z,21.22
2023-08-11T07:55:06.915Z,21.34
2023-08-11T07:57:35.443Z,21.45
2023-08-11T08:00:06.765Z,21.65
2023-08-11T08:02:40.905Z,21.81
2023-08-11T08:05:13.184Z,21.82
2023-08-11T08:07:42.116Z,22.02
2023-08-11T08:10:11.715Z,22.06
2023-08-11T08:12:40.232Z,22.17
2023-08-11T08:15:11.586Z,22.26
2023-08-11T08:17:40.127Z,22.38
2023-08-11T08:20:10.577Z,22.42
2023-08-11T08:22:39.226Z,22.52
2023-08-11T08:25:08.477Z,22.53
2023-08-11T08:27:37.127Z,22.59
2023-08-11T08:30:06.280Z,22.70
2023-08-11T08:32:36.661Z,22.83
2023-08-11T08:35:05.515Z,22.78
2023-08-11T08:37:33.910Z,22.79
2023-08-11T08:40:03.000Z,22.85
2023-08-11T08:42:31.374Z,23.11
2023-08-11T08:45:00.313Z,23.11
2023-08-11T08:47:28.875Z,23.14
2023-08-11T08:49:58.739Z,23.22
2023-08-11T08:52:27.419Z,23.26
2023-08-11T08:54:57.327Z,23.33
2023-08-11T08:57:26.880Z,23.31
2023-08-11T08:59:55.567Z,23.34
2023-08-11T09:02:29.101Z,23.36
2023-08-11T09:04:59.124Z,23.30
2023-08-11T09:07:28.940Z,23.47
2023-08-11T09:09:57.334Z,23.59
2023-08-11T09:12:28.896Z,23.62
2023-08-11T09:14:59.882Z,23.65
2023-08-11T09:17:28.396Z,23.84
2023-08-11T09:19:59.270Z,24.02
2023-08-11T09:22:27.950Z,24.01
2023-08-11T09:24:57.089Z,23.63
2023-08-11T09:27:25.797Z,23.82
2023-08-11T09:29:54.384Z,24.04
2023-08-11T09:32:26.983Z,24.17
2023-08-11T09:34:55.767Z,24.13
2023-08-11T09:37:25.647Z,24.26
2023-08-11T09:39:57.614Z,24.52
2023-08-11T09:42:28.953Z,24.85
2023-08-11T09:44:57.310Z,25.26
2023-08-11T09:47:25.778Z,25.67
2023-08-11T09:49:54.250Z,25.95
2023-08-11T09:52:22.761Z,25.98
2023-08-11T09:54:53.048Z,25.95
2023-08-11T09:57:21.432Z,26.06
2023-08-11T09:59:49.924Z,26.19
2023-08-11T10:02:20.398Z,26.51
2023-08-11T10:05:00.921Z,26.66
2023-08-11T10:07:31.966Z,26.62
2023-08-11T10:10:02.489Z,27.00
2023-08-11T10:12:31.175Z,26.77
2023-08-11T10:14:59.569Z,26.98
2023-08-11T10:17:28.071Z,27.04
2023-08-11T10:19:57.103Z,27.68
2023-08-11T10:22:26.362Z,27.87
2023-08-11T10:24:54.803Z,28.26
2023-08-11T10:27:24.660Z,28.50
2023-08-11T10:29:53.630Z,28.38
2023-08-11T10:32:24.689Z,28.45
2023-08-11T10:34:56.402Z,28.79
2023-08-11T10:37:26.211Z,29.23
2023-08-11T10:40:06.534Z,29.14
2023-08-11T10:42:37.962Z,29.40
2023-08-11T10:45:11.018Z,29.28
2023-08-11T10:47:40.906Z,29.23
2023-08-11T10:50:12.373Z,29.36
2023-08-11T10:52:41.157Z,29.76
2023-08-11T10:55:09.827Z,30.13
2023-08-11T10:57:39.682Z,30.22
2023-08-11T11:00:10.654Z,30.44
2023-08-11T11:02:39.173Z,30.54
2023-08-11T11:05:09.131Z,29.75
2023-08-11T11:07:39.960Z,29.40
2023-08-11T11:10:09.638Z,29.63
2023-08-11T11:12:39.456Z,29.92
2023-08-11T11:15:08.989Z,30.15
2023-08-11T11:17:37.425Z,30.15
2023-08-11T11:20:06.416Z,30.07
2023-08-11T11:22:35.162Z,29.73
2023-08-11T11:25:03.992Z,30.06
2023-08-11T11:27:32.626Z,30.05
2023-08-11T11:30:02.932Z,30.12
2023-08-11T11:32:31.367Z,30.23
2023-08-11T11:34:59.721Z,30.17
2023-08-11T11:37:28.155Z,29.76
2023-08-11T11:39:56.582Z,29.59
2023-08-11T11:42:25.617Z,29.64
2023-08-11T11:44:54.059Z,29.24
2023-08-11T11:47:23.916Z,29.32
2023-08-11T11:49:56.601Z,29.62
2023-08-11T11:52:25.564Z,29.74
2023-08-11T11:54:54.340Z,29.73
2023-08-11T11:57:23.039Z,29.98
2023-08-11T11:59:51.886Z,30.00
2023-08-11T12:02:22.073Z,29.78
2023-08-11T12:04:53.997Z,29.65
2023-08-11T12:07:32.803Z,29.62
2023-08-11T12:10:01.608Z,29.61
2023-08-11T12:12:30.048Z,29.62
2023-08-11T12:15:02.834Z,29.36
2023-08-11T12:17:32.503Z,29.35
2023-08-11T12:20:02.997Z,29.31
2023-08-11T12:22:32.784Z,29.21
2023-08-11T12:25:01.175Z,28.70
2023-08-11T12:27:30.532Z,28.35
2023-08-11T12:29:58.959Z,28.08
2023-08-11T12:32:27.438Z,27.97
2023-08-11T12:34:56.135Z,27.68
2023-08-11T12:37:27.425Z,27.74
2023-08-11T12:39:55.800Z,27.80
2023-08-11T12:42:24.234Z,27.75
2023-08-11T12:44:52.640Z,27.67
2023-08-11T12:47:21.639Z,27.63
2023-08-11T12:49:50.101Z,27.51
2023-08-11T12:52:18.484Z,27.15
2023-08-11T12:54:48.316Z,26.88
2023-08-11T12:57:16.723Z,26.61
2023-08-11T12:59:45.300Z,26.71
2023-08-11T13:02:14.508Z,26.67
2023-08-11T13:04:42.965Z,26.56
2023-08-11T13:07:11.570Z,26.60
2023-08-11T13:09:40.058Z,26.59
2023-08-11T13:12:13.624Z,26.58
2023-08-11T13:14:42.593Z,26.57
2023-08-11T13:17:11.859Z,26.38
2023-08-11T13:19:40.250Z,26.39
2023-08-11T13:22:09.535Z,26.39
2023-08-11T13:24:38.521Z,26.33
2023-08-11T13:27:07.117Z,26.34
2023-08-11T13:29:36.955Z,26.37
2023-08-11T13:32:05.689Z,26.40
2023-08-11T13:34:34.239Z,26.38
2023-08-11T13:37:02.678Z,26.36
2023-08-11T13:39:31.050Z,26.33
2023-08-11T13:41:59.516Z,26.28
2023-08-11T13:44:28.390Z,26.28
2023-08-11T13:46:59.410Z,26.30
2023-08-11T13:49:27.768Z,26.29
2023-08-11T13:51:56.182Z,26.36
2023-08-11T13:54:25.064Z,26.39
2023-08-11T13:56:53.847Z,26.35
2023-08-11T13:59:22.282Z,26.35
2023-08-11T14:01:50.670Z,26.46
2023-08-11T14:04:20.567Z,26.54
2023-08-11T14:06:48.960Z,26.61
2023-08-11T14:09:17.464Z,26.69
2023-08-11T14:11:46.714Z,26.71
2023-08-11T14:14:15.099Z,26.75
2023-08-11T14:16:43.479Z,26.92
2023-08-11T14:19:11.845Z,27.06
2023-08-11T14:21:41.602Z,27.09
2023-08-11T14:24:10.779Z,27.32
2023-08-11T14:26:39.342Z,27.53
2023-08-11T14:29:07.832Z,27.55
2023-08-11T14:31:36.230Z,27.66
2023-08-11T14:34:05.465Z,27.77
2023-08-11T14:36:34.005Z,27.79
2023-08-11T14:39:05.564Z,27.75
2023-08-11T14:41:33.958Z,27.74
2023-08-11T14:44:02.365Z,27.89
2023-08-11T14:46:30.779Z,27.98
2023-08-11T14:48:59.190Z,28.00
2023-08-11T14:51:27.981Z,28.17
2023-08-11T14:53:56.364Z,28.28
2023-08-11T14:56:27.664Z,28.40
2023-08-11T14:58:56.284Z,28.41
2023-08-11T15:01:25.396Z,28.45
2023-08-11T15:03:53.912Z,28.39
2023-08-11T15:06:24.613Z,28.28
2023-08-11T15:08:54.783Z,28.24
2023-08-11T15:11:23.239Z,28.38
2023-08-11T15:13:53.105Z,28.32
2023-08-11T15:16:22.367Z,28.28
2023-08-11T15:18:51.262Z,28.19
2023-08-11T15:21:21.486Z,28.06
2023-08-11T15:23:49.935Z,28.03
2023-08-11T15:26:19.563Z,28.00
2023-08-11T15:28:48.175Z,28.01
2023-08-11T15:31:18.138Z,27.84
2023-08-11T15:33:47.552Z,27.83
2023-08-11T15:36:16.451Z,27.83
2023-08-11T15:38:44.865Z,27.83
2023-08-11T15:41:13.975Z,27.91
2023-08-11T15:43:42.440Z,27.87
2023-08-11T15:46:11.586Z,27.73
2023-08-11T15:48:43.582Z,27.68
2023-08-11T15:51:11.982Z,27.68
2023-08-11T15:53:40.552Z,27.71
2023-08-11T15:56:09.098Z,27.63
2023-08-11T15:58:38.678Z,27.65
2023-08-11T16:01:07.153Z,27.67
2023-08-11T16:03:36.469Z,27.68
2023-08-11T16:06:06.970Z,27.56
2023-08-11T16:08:35.526Z,27.54
2023-08-11T16:11:04.046Z,27.50
2023-08-11T16:13:32.463Z,27.52
2023-08-11T16:16:01.449Z,27.46
2023-08-11T16:18:32.382Z,27.50
2023-08-11T16:21:03.901Z,27.38
2023-08-11T16:23:34.782Z,27.28
2023-08-11T16:26:03.579Z,27.15
2023-08-11T16:28:32.061Z,26.88
2023-08-11T16:31:00.498Z,26.72
2023-08-11T16:33:29.011Z,26.68
2023-08-11T16:35:57.436Z,26.59
2023-08-11T16:38:25.850Z,26.54
2023-08-11T16:40:56.030Z,26.38
2023-08-11T16:43:24.755Z,26.12
2023-08-11T16:45:53.271Z,26.00
2023-08-11T16:48:21.730Z,25.86
2023-08-11T16:50:50.789Z,25.72
2023-08-11T16:53:19.480Z,25.65
2023-08-11T16:55:49.127Z,25.50
2023-08-11T16:58:19.736Z,25.43
2023-08-11T17:00:52.601Z,25.22
2023-08-11T17:03:24.038Z,24.97
2023-08-11T17:05:52.602Z,24.86
2023-08-11T17:08:21.050Z,24.63
2023-08-11T17:10:49.505Z,24.49
2023-08-11T17:13:19.354Z,24.35
2023-08-11T17:15:47.776Z,24.18
2023-08-11T17:18:16.293Z,24.03
2023-08-11T17:20:45.179Z,23.96
2023-08-11T17:23:13.685Z,23.85
2023-08-11T17:25:42.102Z,23.70
2023-08-11T17:28:10.534Z,23.52
2023-08-11T17:30:41.538Z,23.38
2023-08-11T17:33:10.049Z,23.23
2023-08-11T17:35:40.431Z,23.06
2023-08-11T17:38:10.629Z,22.89
2023-08-11T17:40:41.022Z,22.74
2023-08-11T17:43:11.461Z,22.61
2023-08-11T17:45:41.959Z,22.44
2023-08-11T17:48:10.639Z,22.33
2023-08-11T17:50:39.421Z,22.17
2023-08-11T17:53:07.886Z,22.03
2023-08-11T17:55:36.331Z,21.91
2023-08-11T17:58:05.040Z,21.76
2023-08-11T18:00:33.558Z,21.64
2023-08-11T18:03:03.435Z,21.55
2023-08-11T18:05:31.979Z,21.48
2023-08-11T18:08:00.856Z,21.39
2023-08-11T18:10:29.465Z,21.29
2023-08-11T18:12:57.894Z,21.19
2023-08-11T18:15:27.035Z,21.08
2023-08-11T18:17:56.488Z,20.92
2023-08-11T18:20:27.097Z,20.81
2023-08-11T18:22:56.062Z,20.70
2023-08-11T18:25:24.498Z,20.60
2023-08-11T18:28:01.058Z,20.54
2023-08-11T18:30:30.181Z,20.48
2023-08-11T18:32:59.234Z,20.40
2023-08-11T18:35:29.086Z,20.35
2023-08-11T18:38:06.504Z,20.30
2023-08-11T18:40:40.844Z,20.16
2023-08-11T18:43:09.758Z,20.06
2023-08-11T18:45:38.638Z,19.97
2023-08-11T18:48:07.980Z,19.87
2023-08-11T18:50:37.885Z,19.75
2023-08-11T18:53:06.452Z,19.66
2023-08-11T18:55:35.101Z,19.59
2023-08-11T18:58:04.996Z,19.49
2023-08-11T19:00:33.422Z,19.41
2023-08-11T19:03:02.076Z,19.36
2023-08-11T19:05:32.525Z,19.29
2023-08-11T19:08:02.489Z,19.23
2023-08-11T19:10:31.541Z,19.16
2023-08-11T19:13:00.468Z,19.08
2023-08-11T19:15:29.360Z,19.04
2023-08-11T19:17:59.059Z,18.96
2023-08-11T19:20:27.565Z,18.88
2023-08-11T19:22:58.031Z,18.82
2023-08-11T19:25:30.712Z,18.79
2023-08-11T19:27:59.189Z,18.76
2023-08-11T19:30:28.562Z,18.70
2023-08-11T19:32:59.177Z,18.61
2023-08-11T19:35:28.028Z,18.59
2023-08-11T19:37:56.789Z,18.55
2023-08-11T19:40:25.229Z,18.49
2023-08-11T19:42:55.096Z,18.45
2023-08-11T19:45:24.091Z,18.41
2023-08-11T19:47:53.487Z,18.38
2023-08-11T19:50:23.985Z,18.34
2023-08-11T19:52:53.181Z,18.30
2023-08-11T19:55:21.783Z,18.26
2023-08-11T19:57:51.139Z,18.21
2023-08-11T20:00:21.275Z,18.17
2023-08-11T20:02:50.310Z,18.12
2023-08-11T20:05:20.624Z,18.09
2023-08-11T20:07:49.038Z,18.06
2023-08-11T20:10:17.532Z,18.01
2023-08-11T20:12:46.835Z,18.00
2023-08-11T20:15:15.231Z,17.96
2023-08-11T20:17:45.737Z,17.92
2023-08-11T20:20:14.601Z,17.92
2023-08-11T20:22:43.172Z,17.88
2023-08-11T20:25:11.841Z,17.85
2023-08-11T20:27:40.237Z,17.81
2023-08-11T20:30:10.405Z,17.78
2023-08-11T20:32:39.048Z,17.77
2023-08-11T20:35:10.296Z,17.74
2023-08-11T20:37:39.194Z,17.71
2023-08-11T20:40:10.197Z,17.69
2023-08-11T20:42:38.871Z,17.62
2023-08-11T20:45:08.190Z,17.60
2023-08-11T20:47:37.028Z,17.54
2023-08-11T20:50:06.573Z,17.49
2023-08-11T20:52:36.493Z,17.45
2023-08-11T20:55:05.123Z,17.41
2023-08-11T20:57:34.080Z,17.37
2023-08-11T21:00:02.433Z,17.30
2023-08-11T21:02:31.017Z,17.24
2023-08-11T21:04:59.441Z,17.22
2023-08-11T21:07:28.358Z,17.21
2023-08-11T21:09:58.514Z,17.16
2023-08-11T21:12:27.247Z,17.14
2023-08-11T21:14:55.663Z,17.09
2023-08-11T21:17:24.361Z,17.04
2023-08-11T21:19:52.801Z,17.02
2023-08-11T21:22:21.159Z,16.98
2023-08-11T21:24:50.402Z,16.90
2023-08-11T21:27:20.351Z,16.88
2023-08-11T21:29:48.852Z,16.85
2023-08-11T21:32:17.734Z,16.82
2023-08-11T21:34:46.130Z,16.78
2023-08-11T21:37:14.726Z,16.75
2023-08-11T21:39:44.116Z,16.68
2023-08-11T21:42:13.457Z,16.64
2023-08-11T21:44:43.296Z,16.58
2023-08-11T21:47:12.449Z,16.54
2023-08-11T21:49:44.373Z,16.49
2023-08-11T21:52:13.417Z,16.45
2023-08-11T21:54:41.804Z,16.40
2023-08-11T21:57:11.709Z,16.38
2023-08-11T21:59:42.406Z,16.34
2023-08-11T22:02:12.412Z,16.31
2023-08-11T22:04:42.530Z,16.29
2023-08-11T22:07:12.109Z,16.29
2023-08-11T22:09:42.836Z,16.29
2023-08-11T22:12:12.325Z,16.26
2023-08-11T22:14:40.795Z,16.25
2023-08-11T22:17:11.318Z,16.22
2023-08-11T22:19:46.903Z,16.20
2023-08-11T22:22:17.958Z,16.17
2023-08-11T22:24:47.884Z,16.14
2023-08-11T22:27:16.664Z,16.13
2023-08-11T22:29:50.413Z,16.08
2023-08-11T22:32:18.916Z,16.04
2023-08-11T22:34:53.346Z,16.03
2023-08-11T22:37:23.790Z,16.00
2023-08-11T22:39:52.519Z,15.95
2023-08-11T22:42:21.724Z,15.92
2023-08-11T22:44:51.458Z,15.91
2023-08-11T22:47:20.391Z,15.87
2023-08-11T22:49:50.351Z,15.87
2023-08-11T22:52:18.898Z,15.83
2023-08-11T22:54:47.381Z,15.82
2023-08-11T22:57:15.909Z,15.82
2023-08-11T22:59:45.435Z,15.81
2023-08-11T23:02:16.506Z,15.80
2023-08-11T23:04:44.936Z,15.78
2023-08-11T23:07:16.779Z,15.74
2023-08-11T23:09:45.182Z,15.71
2023-08-11T23:12:14.035Z,15.70
2023-08-11T23:14:42.821Z,15.68
2023-08-11T23:17:11.401Z,15.68
2023-08-11T23:19:40.074Z,15.67
2023-08-11T23:22:08.437Z,15.70
2023-08-11T23:24:38.202Z,15.68
2023-08-11T23:27:06.927Z,15.67
2023-08-11T23:29:35.448Z,15.67
2023-08-11T23:32:03.892Z,15.64
2023-08-11T23:34:32.296Z,15.65
2023-08-11T23:37:00.673Z,15.67
2023-08-11T23:39:30.893Z,15.63
2023-08-11T23:42:01.286Z,15.61
2023-08-11T23:44:29.729Z,15.60
2023-08-11T23:46:58.396Z,15.59
2023-08-11T23:49:26.806Z,15.59
2023-08-11T23:51:55.213Z,15.58
2023-08-11T23:54:23.791Z,15.58
2023-08-11T23:56:52.719Z,15.58
2023-08-11T23:59:22.884Z,15.59
